sensor_id;sensor_type;location;lat;lon;timestamp;P1;durP1;ratioP1;P2;durP2;ratioP2
35602;SDS011;21725;50.836;4.368;2024-01-11T00:02:33;29.40;;;16.30;;
35602;SDS011;21725;50.836;4.368;2024-01-11T00:05:34;32.40;;;14.50;;
35602;SDS011;21725;50.836;4.368;2024-01-11T00:08:35;27.63;;;14.93;;
35602;SDS011;21725;50.836;4.368;2024-01-11T00:11:35;30.33;;;15.30;;
35602;SDS011;21725;50.836;4.368;2024-01-11T00:14:36;29.07;;;15.70;;
35602;SDS011;21725;50.836;4.368;2024-01-11T00:17:37;30.70;;;16.23;;
35602;SDS011;21725;50.836;4.368;2024-01-11T00:20:38;31.53;;;15.33;;
35602;SDS011;21725;50.836;4.368;2024-01-11T00:23:39;32.43;;;15.80;;
35602;SDS011;21725;50.836;4.368;2024-01-11T00:26:40;37.57;;;16.10;;
35602;SDS011;21725;50.836;4.368;2024-01-11T00:29:41;25.37;;;13.37;;
35602;SDS011;21725;50.836;4.368;2024-01-11T00:32:42;30.97;;;15.50;;
35602;SDS011;21725;50.836;4.368;2024-01-11T00:35:43;29.93;;;15.77;;
35602;SDS011;21725;50.836;4.368;2024-01-11T00:38:43;23.87;;;12.00;;
35602;SDS011;21725;50.836;4.368;2024-01-11T00:41:44;25.87;;;13.00;;
35602;SDS011;21725;50.836;4.368;2024-01-11T00:44:45;31.50;;;14.70;;
35602;SDS011;21725;50.836;4.368;2024-01-11T00:47:46;20.57;;;10.83;;
35602;SDS011;21725;50.836;4.368;2024-01-11T00:50:47;26.67;;;13.63;;
35602;SDS011;21725;50.836;4.368;2024-01-11T00:53:47;32.40;;;15.33;;
35602;SDS011;21725;50.836;4.368;2024-01-11T00:56:51;37.97;;;16.73;;
35602;SDS011;21725;50.836;4.368;2024-01-11T00:59:52;31.50;;;15.37;;
35602;SDS011;21725;50.836;4.368;2024-01-11T01:02:53;32.87;;;15.60;;
35602;SDS011;21725;50.836;4.368;2024-01-11T01:05:57;21.90;;;11.13;;
35602;SDS011;21725;50.836;4.368;2024-01-11T01:08:57;32.27;;;14.80;;
35602;SDS011;21725;50.836;4.368;2024-01-11T01:11:58;36.50;;;16.17;;
35602;SDS011;21725;50.836;4.368;2024-01-11T01:14:59;32.40;;;17.00;;
35602;SDS011;21725;50.836;4.368;2024-01-11T01:18:00;29.80;;;15.23;;
35602;SDS011;21725;50.836;4.368;2024-01-11T01:21:00;31.77;;;16.03;;
35602;SDS011;21725;50.836;4.368;2024-01-11T01:24:01;34.37;;;16.40;;
35602;SDS011;21725;50.836;4.368;2024-01-11T01:27:02;33.93;;;17.17;;
35602;SDS011;21725;50.836;4.368;2024-01-11T01:30:03;34.70;;;15.97;;
35602;SDS011;21725;50.836;4.368;2024-01-11T01:33:05;30.57;;;16.33;;
35602;SDS011;21725;50.836;4.368;2024-01-11T01:36:08;28.40;;;15.23;;
35602;SDS011;21725;50.836;4.368;2024-01-11T01:39:12;32.43;;;15.23;;
35602;SDS011;21725;50.836;4.368;2024-01-11T01:42:13;29.07;;;16.80;;
35602;SDS011;21725;50.836;4.368;2024-01-11T01:45:14;36.80;;;17.83;;
35602;SDS011;21725;50.836;4.368;2024-01-11T01:48:15;29.37;;;16.87;;
35602;SDS011;21725;50.836;4.368;2024-01-11T01:51:16;33.60;;;16.87;;
35602;SDS011;21725;50.836;4.368;2024-01-11T01:54:17;36.67;;;16.70;;
35602;SDS011;21725;50.836;4.368;2024-01-11T01:57:20;35.03;;;17.50;;
35602;SDS011;21725;50.836;4.368;2024-01-11T02:00:21;34.13;;;17.80;;
35602;SDS011;21725;50.836;4.368;2024-01-11T02:03:23;30.77;;;16.10;;
35602;SDS011;21725;50.836;4.368;2024-01-11T02:06:26;30.10;;;14.17;;
35602;SDS011;21725;50.836;4.368;2024-01-11T02:09:30;32.10;;;16.37;;
35602;SDS011;21725;50.836;4.368;2024-01-11T02:12:31;34.47;;;16.77;;
35602;SDS011;21725;50.836;4.368;2024-01-11T02:15:32;32.67;;;16.93;;
35602;SDS011;21725;50.836;4.368;2024-01-11T02:18:33;19.67;;;10.97;;
35602;SDS011;21725;50.836;4.368;2024-01-11T02:21:34;28.00;;;14.43;;
35602;SDS011;21725;50.836;4.368;2024-01-11T02:24:35;23.07;;;13.17;;
35602;SDS011;21725;50.836;4.368;2024-01-11T02:27:45;31.73;;;15.07;;
35602;SDS011;21725;50.836;4.368;2024-01-11T02:30:46;33.80;;;15.03;;
35602;SDS011;21725;50.836;4.368;2024-01-11T02:33:47;32.33;;;14.90;;
35602;SDS011;21725;50.836;4.368;2024-01-11T02:36:49;34.23;;;15.33;;
35602;SDS011;21725;50.836;4.368;2024-01-11T02:39:50;30.37;;;14.67;;
35602;SDS011;21725;50.836;4.368;2024-01-11T02:42:51;30.80;;;17.97;;
35602;SDS011;21725;50.836;4.368;2024-01-11T02:45:55;31.40;;;16.03;;
35602;SDS011;21725;50.836;4.368;2024-01-11T02:48:56;38.03;;;16.03;;
35602;SDS011;21725;50.836;4.368;2024-01-11T02:51:56;29.93;;;14.27;;
35602;SDS011;21725;50.836;4.368;2024-01-11T02:54:57;33.33;;;17.03;;
35602;SDS011;21725;50.836;4.368;2024-01-11T02:57:58;32.70;;;16.00;;
35602;SDS011;21725;50.836;4.368;2024-01-11T03:00:58;32.30;;;16.10;;
35602;SDS011;21725;50.836;4.368;2024-01-11T03:03:59;28.73;;;15.57;;
35602;SDS011;21725;50.836;4.368;2024-01-11T03:07:00;29.67;;;15.43;;
35602;SDS011;21725;50.836;4.368;2024-01-11T03:10:01;35.17;;;17.33;;
35602;SDS011;21725;50.836;4.368;2024-01-11T03:13:01;30.57;;;16.03;;
35602;SDS011;21725;50.836;4.368;2024-01-11T03:16:02;27.83;;;14.83;;
35602;SDS011;21725;50.836;4.368;2024-01-11T03:19:05;30.20;;;13.97;;
35602;SDS011;21725;50.836;4.368;2024-01-11T03:22:06;33.70;;;18.20;;
35602;SDS011;21725;50.836;4.368;2024-01-11T03:25:07;34.13;;;15.50;;
35602;SDS011;21725;50.836;4.368;2024-01-11T03:28:08;34.80;;;17.13;;
35602;SDS011;21725;50.836;4.368;2024-01-11T03:31:09;29.67;;;15.20;;
35602;SDS011;21725;50.836;4.368;2024-01-11T03:34:10;30.83;;;15.80;;
35602;SDS011;21725;50.836;4.368;2024-01-11T03:37:11;30.60;;;15.93;;
35602;SDS011;21725;50.836;4.368;2024-01-11T03:40:11;30.37;;;15.37;;
35602;SDS011;21725;50.836;4.368;2024-01-11T03:43:12;31.93;;;17.37;;
35602;SDS011;21725;50.836;4.368;2024-01-11T03:46:16;33.03;;;16.67;;
35602;SDS011;21725;50.836;4.368;2024-01-11T03:49:17;30.63;;;15.17;;
35602;SDS011;21725;50.836;4.368;2024-01-11T03:52:18;33.83;;;16.50;;
35602;SDS011;21725;50.836;4.368;2024-01-11T03:55:19;32.63;;;16.33;;
35602;SDS011;21725;50.836;4.368;2024-01-11T03:58:20;30.73;;;16.40;;
35602;SDS011;21725;50.836;4.368;2024-01-11T04:01:21;32.23;;;17.40;;
35602;SDS011;21725;50.836;4.368;2024-01-11T04:04:22;24.00;;;13.17;;
35602;SDS011;21725;50.836;4.368;2024-01-11T04:07:22;31.10;;;16.97;;
35602;SDS011;21725;50.836;4.368;2024-01-11T04:10:24;33.17;;;17.97;;
35602;SDS011;21725;50.836;4.368;2024-01-11T04:13:25;33.27;;;17.97;;
35602;SDS011;21725;50.836;4.368;2024-01-11T04:16:25;30.53;;;15.87;;
35602;SDS011;21725;50.836;4.368;2024-01-11T04:19:26;35.10;;;15.67;;
35602;SDS011;21725;50.836;4.368;2024-01-11T04:22:27;35.40;;;16.27;;
35602;SDS011;21725;50.836;4.368;2024-01-11T04:25:28;27.10;;;13.37;;
35602;SDS011;21725;50.836;4.368;2024-01-11T04:28:29;36.57;;;16.07;;
35602;SDS011;21725;50.836;4.368;2024-01-11T04:31:29;28.27;;;14.57;;
35602;SDS011;21725;50.836;4.368;2024-01-11T04:34:30;30.00;;;16.43;;
35602;SDS011;21725;50.836;4.368;2024-01-11T04:37:31;33.97;;;16.13;;
35602;SDS011;21725;50.836;4.368;2024-01-11T04:40:32;28.43;;;13.77;;
35602;SDS011;21725;50.836;4.368;2024-01-11T04:43:32;34.17;;;15.67;;
35602;SDS011;21725;50.836;4.368;2024-01-11T04:46:34;35.40;;;16.63;;
35602;SDS011;21725;50.836;4.368;2024-01-11T04:49:35;29.27;;;13.10;;
35602;SDS011;21725;50.836;4.368;2024-01-11T04:52:35;30.20;;;16.53;;
35602;SDS011;21725;50.836;4.368;2024-01-11T04:55:36;27.93;;;13.87;;
35602;SDS011;21725;50.836;4.368;2024-01-11T04:58:39;29.07;;;14.40;;
35602;SDS011;21725;50.836;4.368;2024-01-11T05:01:41;25.50;;;14.93;;
35602;SDS011;21725;50.836;4.368;2024-01-11T05:04:42;31.10;;;15.60;;
35602;SDS011;21725;50.836;4.368;2024-01-11T05:07:42;28.17;;;13.13;;
35602;SDS011;21725;50.836;4.368;2024-01-11T05:10:43;28.90;;;15.03;;
35602;SDS011;21725;50.836;4.368;2024-01-11T05:13:44;31.37;;;14.77;;
35602;SDS011;21725;50.836;4.368;2024-01-11T05:16:48;29.03;;;14.60;;
35602;SDS011;21725;50.836;4.368;2024-01-11T05:19:50;32.53;;;17.13;;
35602;SDS011;21725;50.836;4.368;2024-01-11T05:22:51;36.10;;;18.47;;
35602;SDS011;21725;50.836;4.368;2024-01-11T05:25:51;23.83;;;13.63;;
35602;SDS011;21725;50.836;4.368;2024-01-11T05:28:52;31.23;;;16.50;;
35602;SDS011;21725;50.836;4.368;2024-01-11T05:31:53;31.47;;;16.47;;
35602;SDS011;21725;50.836;4.368;2024-01-11T05:34:54;34.00;;;18.17;;
35602;SDS011;21725;50.836;4.368;2024-01-11T05:37:54;19.60;;;12.47;;
35602;SDS011;21725;50.836;4.368;2024-01-11T05:40:55;35.07;;;17.60;;
35602;SDS011;21725;50.836;4.368;2024-01-11T05:43:56;35.10;;;17.97;;
35602;SDS011;21725;50.836;4.368;2024-01-11T05:46:57;40.03;;;18.83;;
35602;SDS011;21725;50.836;4.368;2024-01-11T05:49:57;24.33;;;11.97;;
35602;SDS011;21725;50.836;4.368;2024-01-11T05:52:58;33.50;;;16.70;;
35602;SDS011;21725;50.836;4.368;2024-01-11T05:55:59;28.77;;;15.87;;
35602;SDS011;21725;50.836;4.368;2024-01-11T05:58:59;31.17;;;15.10;;
35602;SDS011;21725;50.836;4.368;2024-01-11T06:02:00;25.23;;;14.77;;
35602;SDS011;21725;50.836;4.368;2024-01-11T06:05:02;21.70;;;12.47;;
35602;SDS011;21725;50.836;4.368;2024-01-11T06:08:03;39.67;;;17.33;;
35602;SDS011;21725;50.836;4.368;2024-01-11T06:11:04;31.93;;;15.30;;
35602;SDS011;21725;50.836;4.368;2024-01-11T06:14:05;31.37;;;16.33;;
35602;SDS011;21725;50.836;4.368;2024-01-11T06:17:05;34.67;;;17.00;;
35602;SDS011;21725;50.836;4.368;2024-01-11T06:20:06;25.17;;;13.13;;
35602;SDS011;21725;50.836;4.368;2024-01-11T06:23:07;41.00;;;18.70;;
35602;SDS011;21725;50.836;4.368;2024-01-11T06:26:08;31.03;;;15.47;;
35602;SDS011;21725;50.836;4.368;2024-01-11T06:29:09;23.13;;;13.17;;
35602;SDS011;21725;50.836;4.368;2024-01-11T06:32:09;25.87;;;13.80;;
35602;SDS011;21725;50.836;4.368;2024-01-11T06:35:10;35.07;;;17.77;;
35602;SDS011;21725;50.836;4.368;2024-01-11T06:38:11;32.13;;;16.27;;
35602;SDS011;21725;50.836;4.368;2024-01-11T06:41:12;42.60;;;17.83;;
35602;SDS011;21725;50.836;4.368;2024-01-11T06:44:13;36.77;;;18.90;;
35602;SDS011;21725;50.836;4.368;2024-01-11T06:47:13;32.43;;;15.63;;
35602;SDS011;21725;50.836;4.368;2024-01-11T06:50:14;32.00;;;17.43;;
35602;SDS011;21725;50.836;4.368;2024-01-11T06:53:15;33.77;;;17.00;;
35602;SDS011;21725;50.836;4.368;2024-01-11T06:56:16;40.00;;;18.40;;
35602;SDS011;21725;50.836;4.368;2024-01-11T06:59:18;26.70;;;13.77;;
35602;SDS011;21725;50.836;4.368;2024-01-11T07:02:19;33.67;;;17.83;;
35602;SDS011;21725;50.836;4.368;2024-01-11T07:05:19;34.80;;;16.70;;
35602;SDS011;21725;50.836;4.368;2024-01-11T07:08:20;31.40;;;15.90;;
35602;SDS011;21725;50.836;4.368;2024-01-11T07:11:21;37.37;;;19.73;;
35602;SDS011;21725;50.836;4.368;2024-01-11T07:14:22;40.77;;;20.67;;
35602;SDS011;21725;50.836;4.368;2024-01-11T07:17:23;39.40;;;19.97;;
35602;SDS011;21725;50.836;4.368;2024-01-11T07:20:24;27.67;;;14.43;;
35602;SDS011;21725;50.836;4.368;2024-01-11T07:23:24;38.27;;;20.70;;
35602;SDS011;21725;50.836;4.368;2024-01-11T07:26:25;38.20;;;19.40;;
35602;SDS011;21725;50.836;4.368;2024-01-11T07:29:26;33.87;;;18.30;;
35602;SDS011;21725;50.836;4.368;2024-01-11T07:32:27;37.20;;;19.13;;
35602;SDS011;21725;50.836;4.368;2024-01-11T07:35:28;39.53;;;20.37;;
35602;SDS011;21725;50.836;4.368;2024-01-11T07:38:28;36.90;;;18.03;;
35602;SDS011;21725;50.836;4.368;2024-01-11T07:41:29;34.23;;;19.47;;
35602;SDS011;21725;50.836;4.368;2024-01-11T07:44:30;37.17;;;19.83;;
35602;SDS011;21725;50.836;4.368;2024-01-11T07:47:31;41.47;;;19.87;;
35602;SDS011;21725;50.836;4.368;2024-01-11T07:50:32;30.30;;;15.30;;
35602;SDS011;21725;50.836;4.368;2024-01-11T07:53:33;31.80;;;16.93;;
35602;SDS011;21725;50.836;4.368;2024-01-11T07:56:34;42.60;;;20.07;;
35602;SDS011;21725;50.836;4.368;2024-01-11T07:59:35;32.93;;;16.63;;
35602;SDS011;21725;50.836;4.368;2024-01-11T08:02:36;34.60;;;18.70;;
35602;SDS011;21725;50.836;4.368;2024-01-11T08:05:37;38.20;;;21.33;;
35602;SDS011;21725;50.836;4.368;2024-01-11T08:08:38;40.07;;;21.03;;
35602;SDS011;21725;50.836;4.368;2024-01-11T08:11:40;33.67;;;19.13;;
35602;SDS011;21725;50.836;4.368;2024-01-11T08:14:41;33.50;;;18.87;;
35602;SDS011;21725;50.836;4.368;2024-01-11T08:17:45;35.83;;;18.03;;
35602;SDS011;21725;50.836;4.368;2024-01-11T08:20:46;38.03;;;18.33;;
35602;SDS011;21725;50.836;4.368;2024-01-11T08:23:47;69.80;;;31.33;;
35602;SDS011;21725;50.836;4.368;2024-01-11T08:26:48;34.90;;;16.27;;
35602;SDS011;21725;50.836;4.368;2024-01-11T08:29:50;24.87;;;10.97;;
35602;SDS011;21725;50.836;4.368;2024-01-11T08:32:50;42.80;;;21.10;;
35602;SDS011;21725;50.836;4.368;2024-01-11T08:35:51;29.70;;;15.07;;
35602;SDS011;21725;50.836;4.368;2024-01-11T08:38:52;35.87;;;18.60;;
35602;SDS011;21725;50.836;4.368;2024-01-11T08:41:52;33.63;;;18.30;;
35602;SDS011;21725;50.836;4.368;2024-01-11T08:44:53;34.20;;;18.90;;
35602;SDS011;21725;50.836;4.368;2024-01-11T08:47:56;39.87;;;16.97;;
35602;SDS011;21725;50.836;4.368;2024-01-11T08:50:56;33.77;;;15.40;;
35602;SDS011;21725;50.836;4.368;2024-01-11T08:53:57;23.03;;;12.63;;
35602;SDS011;21725;50.836;4.368;2024-01-11T08:56:58;42.77;;;21.27;;
35602;SDS011;21725;50.836;4.368;2024-01-11T08:59:59;34.60;;;17.77;;
35602;SDS011;21725;50.836;4.368;2024-01-11T09:03:00;30.57;;;17.27;;
35602;SDS011;21725;50.836;4.368;2024-01-11T09:06:01;27.90;;;13.03;;
35602;SDS011;21725;50.836;4.368;2024-01-11T09:09:03;20.97;;;13.43;;
35602;SDS011;21725;50.836;4.368;2024-01-11T09:12:09;33.87;;;16.30;;
35602;SDS011;21725;50.836;4.368;2024-01-11T09:15:10;26.47;;;14.47;;
35602;SDS011;21725;50.836;4.368;2024-01-11T09:18:11;32.60;;;16.43;;
35602;SDS011;21725;50.836;4.368;2024-01-11T09:21:12;22.87;;;12.90;;
35602;SDS011;21725;50.836;4.368;2024-01-11T09:24:12;39.67;;;20.57;;
35602;SDS011;21725;50.836;4.368;2024-01-11T09:27:13;34.80;;;15.87;;
35602;SDS011;21725;50.836;4.368;2024-01-11T09:30:14;40.43;;;22.10;;
35602;SDS011;21725;50.836;4.368;2024-01-11T09:33:15;32.77;;;17.03;;
35602;SDS011;21725;50.836;4.368;2024-01-11T09:36:16;33.53;;;16.07;;
35602;SDS011;21725;50.836;4.368;2024-01-11T09:39:17;42.13;;;22.13;;
35602;SDS011;21725;50.836;4.368;2024-01-11T09:42:18;42.03;;;20.37;;
35602;SDS011;21725;50.836;4.368;2024-01-11T09:45:19;39.57;;;21.23;;
35602;SDS011;21725;50.836;4.368;2024-01-11T09:48:19;36.13;;;20.27;;
35602;SDS011;21725;50.836;4.368;2024-01-11T09:51:21;37.77;;;20.27;;
35602;SDS011;21725;50.836;4.368;2024-01-11T09:54:23;34.90;;;19.57;;
35602;SDS011;21725;50.836;4.368;2024-01-11T09:57:26;28.07;;;14.00;;
35602;SDS011;21725;50.836;4.368;2024-01-11T10:00:29;39.20;;;21.17;;
35602;SDS011;21725;50.836;4.368;2024-01-11T10:03:31;45.10;;;23.10;;
35602;SDS011;21725;50.836;4.368;2024-01-11T10:06:32;35.63;;;18.50;;
35602;SDS011;21725;50.836;4.368;2024-01-11T10:09:34;27.47;;;14.77;;
35602;SDS011;21725;50.836;4.368;2024-01-11T10:12:38;33.57;;;17.30;;
35602;SDS011;21725;50.836;4.368;2024-01-11T10:15:39;44.23;;;23.63;;
35602;SDS011;21725;50.836;4.368;2024-01-11T10:18:40;39.80;;;20.03;;
35602;SDS011;21725;50.836;4.368;2024-01-11T10:21:41;36.90;;;22.60;;
35602;SDS011;21725;50.836;4.368;2024-01-11T10:24:42;41.00;;;21.27;;
35602;SDS011;21725;50.836;4.368;2024-01-11T10:27:43;40.87;;;19.70;;
35602;SDS011;21725;50.836;4.368;2024-01-11T10:30:45;37.23;;;18.60;;
35602;SDS011;21725;50.836;4.368;2024-01-11T10:33:46;29.20;;;15.97;;
35602;SDS011;21725;50.836;4.368;2024-01-11T10:36:47;37.57;;;20.17;;
35602;SDS011;21725;50.836;4.368;2024-01-11T10:39:48;39.77;;;20.53;;
35602;SDS011;21725;50.836;4.368;2024-01-11T10:42:51;36.13;;;20.17;;
35602;SDS011;21725;50.836;4.368;2024-01-11T10:45:52;39.60;;;19.73;;
35602;SDS011;21725;50.836;4.368;2024-01-11T10:48:59;24.10;;;12.53;;
35602;SDS011;21725;50.836;4.368;2024-01-11T10:52:03;41.27;;;20.57;;
35602;SDS011;21725;50.836;4.368;2024-01-11T10:55:07;29.53;;;16.47;;
35602;SDS011;21725;50.836;4.368;2024-01-11T10:58:08;30.07;;;17.03;;
35602;SDS011;21725;50.836;4.368;2024-01-11T11:01:11;48.20;;;21.87;;
35602;SDS011;21725;50.836;4.368;2024-01-11T11:04:12;39.03;;;21.30;;
35602;SDS011;21725;50.836;4.368;2024-01-11T11:07:15;32.43;;;16.93;;
35602;SDS011;21725;50.836;4.368;2024-01-11T11:10:19;36.33;;;18.47;;
35602;SDS011;21725;50.836;4.368;2024-01-11T11:13:22;41.53;;;21.87;;
35602;SDS011;21725;50.836;4.368;2024-01-11T11:16:23;35.80;;;21.30;;
35602;SDS011;21725;50.836;4.368;2024-01-11T11:19:24;30.67;;;13.30;;
35602;SDS011;21725;50.836;4.368;2024-01-11T11:22:28;30.93;;;18.27;;
35602;SDS011;21725;50.836;4.368;2024-01-11T11:25:34;28.08;;;14.95;;
35602;SDS011;21725;50.836;4.368;2024-01-11T11:28:35;31.80;;;18.83;;
35602;SDS011;21725;50.836;4.368;2024-01-11T11:31:37;35.70;;;18.53;;
35602;SDS011;21725;50.836;4.368;2024-01-11T11:34:42;30.50;;;15.73;;
35602;SDS011;21725;50.836;4.368;2024-01-11T11:37:44;32.80;;;18.40;;
35602;SDS011;21725;50.836;4.368;2024-01-11T11:40:46;30.80;;;16.67;;
35602;SDS011;21725;50.836;4.368;2024-01-11T11:43:48;41.88;;;19.48;;
35602;SDS011;21725;50.836;4.368;2024-01-11T11:46:51;32.53;;;16.37;;
35602;SDS011;21725;50.836;4.368;2024-01-11T11:53:06;36.13;;;19.27;;
35602;SDS011;21725;50.836;4.368;2024-01-11T11:56:10;31.67;;;16.60;;
35602;SDS011;21725;50.836;4.368;2024-01-11T11:59:12;23.77;;;10.80;;
35602;SDS011;21725;50.836;4.368;2024-01-11T12:02:14;32.17;;;17.83;;
35602;SDS011;21725;50.836;4.368;2024-01-11T12:05:17;29.70;;;15.07;;
35602;SDS011;21725;50.836;4.368;2024-01-11T12:08:21;25.83;;;16.10;;
35602;SDS011;21725;50.836;4.368;2024-01-11T12:11:21;23.03;;;12.57;;
35602;SDS011;21725;50.836;4.368;2024-01-11T12:14:22;32.80;;;16.63;;
35602;SDS011;21725;50.836;4.368;2024-01-11T12:17:24;35.17;;;17.98;;
35602;SDS011;21725;50.836;4.368;2024-01-11T12:20:25;25.30;;;12.98;;
35602;SDS011;21725;50.836;4.368;2024-01-11T12:23:27;33.00;;;16.63;;
35602;SDS011;21725;50.836;4.368;2024-01-11T12:26:31;20.50;;;11.13;;
35602;SDS011;21725;50.836;4.368;2024-01-11T12:29:31;24.98;;;14.80;;
35602;SDS011;21725;50.836;4.368;2024-01-11T12:32:33;31.52;;;18.80;;
35602;SDS011;21725;50.836;4.368;2024-01-11T12:35:34;33.17;;;20.13;;
35602;SDS011;21725;50.836;4.368;2024-01-11T12:38:36;28.83;;;14.63;;
35602;SDS011;21725;50.836;4.368;2024-01-11T12:41:36;24.27;;;13.75;;
35602;SDS011;21725;50.836;4.368;2024-01-11T12:44:37;30.45;;;13.75;;
35602;SDS011;21725;50.836;4.368;2024-01-11T12:47:39;34.55;;;16.55;;
35602;SDS011;21725;50.836;4.368;2024-01-11T12:50:40;32.00;;;15.90;;
35602;SDS011;21725;50.836;4.368;2024-01-11T12:53:41;23.17;;;11.38;;
35602;SDS011;21725;50.836;4.368;2024-01-11T12:56:45;21.45;;;12.32;;
35602;SDS011;21725;50.836;4.368;2024-01-11T12:59:46;32.75;;;16.60;;
35602;SDS011;21725;50.836;4.368;2024-01-11T13:02:48;18.17;;;10.55;;
35602;SDS011;21725;50.836;4.368;2024-01-11T13:05:51;26.85;;;12.75;;
35602;SDS011;21725;50.836;4.368;2024-01-11T13:08:51;32.00;;;16.90;;
35602;SDS011;21725;50.836;4.368;2024-01-11T13:11:52;24.92;;;15.00;;
35602;SDS011;21725;50.836;4.368;2024-01-11T13:14:53;31.05;;;15.13;;
35602;SDS011;21725;50.836;4.368;2024-01-11T13:17:55;30.45;;;16.40;;
35602;SDS011;21725;50.836;4.368;2024-01-11T13:20:57;22.52;;;11.63;;
35602;SDS011;21725;50.836;4.368;2024-01-11T13:23:57;26.50;;;13.40;;
35602;SDS011;21725;50.836;4.368;2024-01-11T13:26:58;27.08;;;12.43;;
35602;SDS011;21725;50.836;4.368;2024-01-11T13:29:59;25.05;;;13.35;;
35602;SDS011;21725;50.836;4.368;2024-01-11T13:32:59;22.00;;;12.75;;
35602;SDS011;21725;50.836;4.368;2024-01-11T13:36:00;26.00;;;12.95;;
35602;SDS011;21725;50.836;4.368;2024-01-11T13:39:01;17.60;;;10.75;;
35602;SDS011;21725;50.836;4.368;2024-01-11T13:42:02;26.67;;;12.35;;
35602;SDS011;21725;50.836;4.368;2024-01-11T13:45:03;22.27;;;12.52;;
35602;SDS011;21725;50.836;4.368;2024-01-11T13:48:06;28.35;;;14.65;;
35602;SDS011;21725;50.836;4.368;2024-01-11T13:51:07;25.88;;;14.48;;
35602;SDS011;21725;50.836;4.368;2024-01-11T13:54:10;22.55;;;12.95;;
35602;SDS011;21725;50.836;4.368;2024-01-11T13:57:10;26.52;;;13.45;;
35602;SDS011;21725;50.836;4.368;2024-01-11T14:00:11;26.05;;;13.00;;
35602;SDS011;21725;50.836;4.368;2024-01-11T14:03:12;22.67;;;12.82;;
35602;SDS011;21725;50.836;4.368;2024-01-11T14:06:13;22.55;;;12.88;;
35602;SDS011;21725;50.836;4.368;2024-01-11T14:09:14;20.52;;;11.82;;
35602;SDS011;21725;50.836;4.368;2024-01-11T14:12:16;23.02;;;13.25;;
35602;SDS011;21725;50.836;4.368;2024-01-11T14:15:16;23.90;;;12.63;;
35602;SDS011;21725;50.836;4.368;2024-01-11T14:18:17;22.08;;;10.45;;
35602;SDS011;21725;50.836;4.368;2024-01-11T14:21:18;19.15;;;11.15;;
35602;SDS011;21725;50.836;4.368;2024-01-11T14:24:19;22.70;;;11.93;;
35602;SDS011;21725;50.836;4.368;2024-01-11T14:27:20;25.73;;;12.02;;
35602;SDS011;21725;50.836;4.368;2024-01-11T14:30:21;23.55;;;13.20;;
35602;SDS011;21725;50.836;4.368;2024-01-11T14:33:25;21.25;;;11.48;;
35602;SDS011;21725;50.836;4.368;2024-01-11T14:36:25;21.27;;;11.43;;
35602;SDS011;21725;50.836;4.368;2024-01-11T14:39:26;21.13;;;11.00;;
35602;SDS011;21725;50.836;4.368;2024-01-11T14:42:27;16.40;;;8.50;;
35602;SDS011;21725;50.836;4.368;2024-01-11T14:45:28;21.90;;;13.38;;
35602;SDS011;21725;50.836;4.368;2024-01-11T14:48:29;17.50;;;9.77;;
35602;SDS011;21725;50.836;4.368;2024-01-11T14:51:30;25.13;;;12.32;;
35602;SDS011;21725;50.836;4.368;2024-01-11T14:54:33;20.83;;;10.38;;
35602;SDS011;21725;50.836;4.368;2024-01-11T14:57:34;23.23;;;11.32;;
35602;SDS011;21725;50.836;4.368;2024-01-11T15:00:36;17.30;;;11.18;;
35602;SDS011;21725;50.836;4.368;2024-01-11T15:03:36;23.52;;;12.43;;
35602;SDS011;21725;50.836;4.368;2024-01-11T15:06:37;22.33;;;10.65;;
35602;SDS011;21725;50.836;4.368;2024-01-11T15:09:38;25.13;;;13.73;;
35602;SDS011;21725;50.836;4.368;2024-01-11T15:12:40;19.55;;;11.98;;
35602;SDS011;21725;50.836;4.368;2024-01-11T15:15:40;23.35;;;12.98;;
35602;SDS011;21725;50.836;4.368;2024-01-11T15:18:41;24.58;;;13.20;;
35602;SDS011;21725;50.836;4.368;2024-01-11T15:21:42;26.08;;;13.43;;
35602;SDS011;21725;50.836;4.368;2024-01-11T15:24:42;18.38;;;10.63;;
35602;SDS011;21725;50.836;4.368;2024-01-11T15:27:43;18.27;;;10.25;;
35602;SDS011;21725;50.836;4.368;2024-01-11T15:30:44;21.38;;;12.43;;
35602;SDS011;21725;50.836;4.368;2024-01-11T15:33:45;19.75;;;11.75;;
35602;SDS011;21725;50.836;4.368;2024-01-11T15:36:45;26.20;;;14.10;;
35602;SDS011;21725;50.836;4.368;2024-01-11T15:39:46;30.08;;;15.57;;
35602;SDS011;21725;50.836;4.368;2024-01-11T15:42:47;19.70;;;11.93;;
35602;SDS011;21725;50.836;4.368;2024-01-11T15:45:49;19.73;;;11.75;;
35602;SDS011;21725;50.836;4.368;2024-01-11T15:48:51;25.67;;;12.45;;
35602;SDS011;21725;50.836;4.368;2024-01-11T15:51:52;26.65;;;15.20;;
35602;SDS011;21725;50.836;4.368;2024-01-11T15:54:52;27.15;;;16.27;;
35602;SDS011;21725;50.836;4.368;2024-01-11T15:57:53;21.17;;;11.38;;
35602;SDS011;21725;50.836;4.368;2024-01-11T16:00:54;24.75;;;13.32;;
35602;SDS011;21725;50.836;4.368;2024-01-11T16:03:55;26.92;;;14.88;;
35602;SDS011;21725;50.836;4.368;2024-01-11T16:06:56;22.98;;;11.55;;
35602;SDS011;21725;50.836;4.368;2024-01-11T16:09:56;19.67;;;10.70;;
35602;SDS011;21725;50.836;4.368;2024-01-11T16:12:57;21.65;;;13.00;;
35602;SDS011;21725;50.836;4.368;2024-01-11T16:15:58;17.90;;;7.70;;
35602;SDS011;21725;50.836;4.368;2024-01-11T16:18:59;11.80;;;6.82;;
35602;SDS011;21725;50.836;4.368;2024-01-11T16:22:00;12.55;;;7.03;;
35602;SDS011;21725;50.836;4.368;2024-01-11T16:25:00;16.13;;;9.00;;
35602;SDS011;21725;50.836;4.368;2024-01-11T16:28:01;15.73;;;8.00;;
35602;SDS011;21725;50.836;4.368;2024-01-11T16:31:02;15.77;;;7.95;;
35602;SDS011;21725;50.836;4.368;2024-01-11T16:34:03;10.50;;;6.35;;
35602;SDS011;21725;50.836;4.368;2024-01-11T16:37:05;16.65;;;9.10;;
35602;SDS011;21725;50.836;4.368;2024-01-11T16:40:06;16.85;;;8.65;;
35602;SDS011;21725;50.836;4.368;2024-01-11T16:43:09;37.90;;;20.30;;
35602;SDS011;21725;50.836;4.368;2024-01-11T16:46:17;20.08;;;10.00;;
35602;SDS011;21725;50.836;4.368;2024-01-11T16:49:18;16.90;;;9.75;;
35602;SDS011;21725;50.836;4.368;2024-01-11T16:52:21;14.90;;;8.50;;
35602;SDS011;21725;50.836;4.368;2024-01-11T16:55:22;15.63;;;9.40;;
35602;SDS011;21725;50.836;4.368;2024-01-11T16:58:22;15.73;;;7.65;;
35602;SDS011;21725;50.836;4.368;2024-01-11T17:01:23;13.20;;;8.23;;
35602;SDS011;21725;50.836;4.368;2024-01-11T17:04:24;16.48;;;8.75;;
35602;SDS011;21725;50.836;4.368;2024-01-11T17:07:24;15.85;;;8.63;;
35602;SDS011;21725;50.836;4.368;2024-01-11T17:10:25;14.02;;;8.38;;
35602;SDS011;21725;50.836;4.368;2024-01-11T17:13:26;13.93;;;7.32;;
35602;SDS011;21725;50.836;4.368;2024-01-11T17:16:27;15.18;;;7.82;;
35602;SDS011;21725;50.836;4.368;2024-01-11T17:19:28;26.98;;;10.32;;
35602;SDS011;21725;50.836;4.368;2024-01-11T17:22:28;22.80;;;10.55;;
35602;SDS011;21725;50.836;4.368;2024-01-11T17:25:29;18.80;;;9.85;;
35602;SDS011;21725;50.836;4.368;2024-01-11T17:28:30;17.92;;;9.85;;
35602;SDS011;21725;50.836;4.368;2024-01-11T17:31:31;19.17;;;10.23;;
35602;SDS011;21725;50.836;4.368;2024-01-11T17:34:32;16.67;;;8.93;;
35602;SDS011;21725;50.836;4.368;2024-01-11T17:37:32;19.05;;;10.88;;
35602;SDS011;21725;50.836;4.368;2024-01-11T17:40:33;14.65;;;9.55;;
35602;SDS011;21725;50.836;4.368;2024-01-11T17:43:35;16.20;;;10.13;;
35602;SDS011;21725;50.836;4.368;2024-01-11T17:46:36;10.60;;;4.70;;